Time;durP1;ratioP1;P1;durP2;ratioP2;P2;SDS_P1;SDS_P2;PMS_P1;PMS_P2;Temp;Humidity;BMP_temperature;BMP_pressure;BME280_temperature;BME280_humidity;BME280_pressure;Samples;Min_cycle;Max_cycle;Signal;HPM_P1;HPM_P2
2024/03/18 05:09:34;;;;;;;0.40;0.40;;;9.10;99.90;;;;;;4895617;29;20265;-61
2024/03/18 05:12:00;;;;;;;0.30;0.30;;;9.10;99.90;;;;;;4898188;29;20648;-62
2024/03/18 05:14:25;;;;;;;0.90;0.90;;;9.20;99.90;;;;;;4899617;29;20881;-61
2024/03/18 05:16:51;;;;;;;0.30;0.30;;;9.20;99.90;;;;;;4900129;29;20230;-62
2024/03/18 05:19:17;;;;;;;0.40;0.40;;;9.20;99.90;;;;;;4901117;29;20179;-61
2024/03/18 05:21:42;;;;;;;0.40;0.40;;;9.20;99.90;;;;;;4900742;29;20568;-63
2024/03/18 05:24:08;;;;;;;0.30;0.30;;;9.20;99.90;;;;;;4900540;29;20238;-62
2024/03/18 05:26:34;;;;;;;0.40;0.40;;;9.20;99.90;;;;;;4899649;29;20823;-63
2024/03/18 05:29:00;;;;;;;0.30;0.30;;;9.30;99.90;;;;;;4896485;29;20171;-64
2024/03/18 05:31:30;;;;;;;0.30;0.30;;;9.20;99.90;;;;;;4882650;29;20196;-63
2024/03/18 05:33:56;;;;;;;0.30;0.30;;;9.30;99.90;;;;;;4880529;29;20184;-62
2024/03/18 05:36:22;;;;;;;0.30;0.30;;;9.30;99.90;;;;;;4881403;29;20192;-59
2024/03/18 05:38:47;;;;;;;0.40;0.40;;;9.30;99.90;;;;;;4879892;29;20241;-61
2024/03/18 05:41:13;;;;;;;0.40;0.40;;;9.30;99.90;;;;;;4881295;29;20183;-60
2024/03/18 05:43:38;;;;;;;0.33;0.33;;;9.30;99.90;;;;;;4881710;29;20208;-62
2024/03/18 05:46:04;;;;;;;0.30;0.30;;;9.40;99.90;;;;;;4881114;29;20196;-61
2024/03/18 05:48:30;;;;;;;0.30;0.30;;;9.40;99.90;;;;;;4881543;29;20235;-61
2024/03/18 05:50:55;;;;;;;0.30;0.30;;;9.30;99.90;;;;;;4881704;29;20177;-62
2024/03/18 05:53:21;;;;;;;0.50;0.50;;;9.30;99.90;;;;;;4881605;29;20183;-62
2024/03/18 05:55:47;;;;;;;0.30;0.30;;;9.40;99.90;;;;;;4881037;29;20278;-60
2024/03/18 05:58:12;;;;;;;0.37;0.37;;;9.40;99.90;;;;;;4881402;29;20645;-60
2024/03/18 06:00:38;;;;;;;0.30;0.30;;;9.50;99.90;;;;;;4881414;29;20247;-61
2024/03/18 06:03:05;;;;;;;0.60;0.60;;;9.50;99.90;;;;;;4881188;29;20206;-60
2024/03/18 06:05:31;;;;;;;0.30;0.30;;;9.50;99.90;;;;;;4880376;29;20184;-61
2024/03/18 06:07:56;;;;;;;0.30;0.30;;;9.60;99.90;;;;;;4880715;29;20674;-61
2024/03/18 06:10:22;;;;;;;0.50;0.50;;;9.60;99.90;;;;;;4881275;29;20180;-63
2024/03/18 06:12:49;;;;;;;0.30;0.30;;;9.60;99.90;;;;;;4880607;29;20616;-61
2024/03/18 06:15:14;;;;;;;0.88;0.88;;;9.60;99.90;;;;;;4880525;29;20203;-60
2024/03/18 06:17:40;;;;;;;0.30;0.30;;;9.60;99.90;;;;;;4880926;29;20177;-62
2024/03/18 06:20:07;;;;;;;0.30;0.30;;;9.60;99.90;;;;;;4879124;29;20180;-62
2024/03/18 06:22:38;;;;;;;0.40;0.40;;;9.60;99.90;;;;;;4879574;29;20204;-61
2024/03/18 06:27:53;;;;;;;0.40;0.40;;;9.70;99.90;;;;;;4870134;29;20193;-61
2024/03/18 06:30:22;;;;;;;0.30;0.30;;;9.70;99.90;;;;;;4880709;29;20673;-60
2024/03/18 06:32:47;;;;;;;0.40;0.40;;;9.80;99.90;;;;;;4880408;29;20181;-61
2024/03/18 06:35:13;;;;;;;0.30;0.30;;;9.80;99.90;;;;;;4880071;29;20263;-60
2024/03/18 06:37:39;;;;;;;0.30;0.30;;;9.80;99.90;;;;;;4880529;29;20502;-60
2024/03/18 06:40:08;;;;;;;0.70;0.70;;;9.80;99.90;;;;;;4880477;29;20169;-61
2024/03/18 06:42:34;;;;;;;0.30;0.30;;;9.90;99.90;;;;;;4880273;29;20184;-61
2024/03/18 06:45:00;;;;;;;0.40;0.40;;;9.90;99.90;;;;;;4878923;29;20178;-61
2024/03/18 06:47:26;;;;;;;0.30;0.30;;;9.90;99.90;;;;;;4880133;29;20634;-63
2024/03/18 06:49:53;;;;;;;0.30;0.30;;;10.00;99.90;;;;;;4880139;29;20631;-60
2024/03/18 06:52:18;;;;;;;0.43;0.43;;;10.00;99.90;;;;;;4880119;29;20176;-62
2024/03/18 06:54:44;;;;;;;0.30;0.30;;;10.10;99.90;;;;;;4879908;29;20536;-60
2024/03/18 06:57:10;;;;;;;0.30;0.30;;;10.10;99.90;;;;;;4880278;29;20220;-62
2024/03/18 06:59:36;;;;;;;0.30;0.30;;;10.10;99.90;;;;;;4880176;29;20196;-62
2024/03/18 07:02:02;;;;;;;0.30;0.30;;;10.10;99.90;;;;;;4878835;29;20184;-62
2024/03/18 07:04:28;;;;;;;0.40;0.40;;;10.20;99.90;;;;;;4879819;29;20470;-64
2024/03/18 07:06:54;;;;;;;0.40;0.40;;;10.20;99.90;;;;;;4879885;29;20433;-60
2024/03/18 07:09:20;;;;;;;0.40;0.40;;;10.20;99.90;;;;;;4880047;29;20446;-62
2024/03/18 07:11:48;;;;;;;0.30;0.30;;;10.20;99.90;;;;;;4880016;29;20290;-61
2024/03/18 07:14:14;;;;;;;0.30;0.30;;;10.30;99.90;;;;;;4880007;29;20186;-61
2024/03/18 07:16:40;;;;;;;0.40;0.40;;;10.20;99.90;;;;;;4879288;29;20514;-62
2024/03/18 07:19:06;;;;;;;0.30;0.30;;;10.30;99.90;;;;;;4879609;29;20423;-62
2024/03/18 07:21:31;;;;;;;0.30;0.30;;;10.30;99.90;;;;;;4879843;29;20177;-62
2024/03/18 07:23:59;;;;;;;0.30;0.30;;;10.30;99.90;;;;;;4879054;29;20232;-63
2024/03/18 07:26:25;;;;;;;0.30;0.30;;;10.30;99.90;;;;;;4878290;29;20200;-61
2024/03/18 07:28:51;;;;;;;0.30;0.30;;;10.40;99.90;;;;;;4879518;29;20475;-62
2024/03/18 07:31:16;;;;;;;0.30;0.30;;;10.40;99.90;;;;;;4879355;29;20648;-62
2024/03/18 07:33:42;;;;;;;0.40;0.40;;;10.40;99.90;;;;;;4879117;29;20219;-62
2024/03/18 07:36:08;;;;;;;0.37;0.37;;;10.40;99.90;;;;;;4878766;29;20301;-62
2024/03/18 07:38:34;;;;;;;0.30;0.30;;;10.40;99.90;;;;;;4879146;29;20264;-62
2024/03/18 07:41:00;;;;;;;0.40;0.40;;;10.40;99.90;;;;;;4879272;29;20543;-62
2024/03/18 07:43:25;;;;;;;0.30;0.30;;;10.40;99.90;;;;;;4879327;29;20197;-61
2024/03/18 07:45:51;;;;;;;0.30;0.30;;;10.40;99.90;;;;;;4879038;29;20548;-60
2024/03/18 07:48:17;;;;;;;0.30;0.30;;;10.40;99.90;;;;;;4879382;29;20189;-62
2024/03/18 07:50:42;;;;;;;0.30;0.20;;;10.40;99.90;;;;;;4879388;29;20179;-60
2024/03/18 07:53:08;;;;;;;0.40;0.40;;;10.40;99.90;;;;;;4879361;29;20186;-61
2024/03/18 07:55:33;;;;;;;0.30;0.30;;;10.40;99.90;;;;;;4877636;29;20235;-59
2024/03/18 07:57:59;;;;;;;0.30;0.30;;;10.40;99.90;;;;;;4879496;29;20177;-62
2024/03/18 08:00:25;;;;;;;0.30;0.20;;;10.40;99.90;;;;;;4879402;29;20925;-58
2024/03/18 08:02:50;;;;;;;0.30;0.30;;;10.40;99.90;;;;;;4879779;29;20183;-60
2024/03/18 08:05:16;;;;;;;0.70;0.70;;;10.50;99.90;;;;;;4878999;29;20173;-62
2024/03/18 08:07:42;;;;;;;0.40;0.40;;;10.60;99.90;;;;;;4879255;29;20197;-58
2024/03/18 08:10:08;;;;;;;0.30;0.30;;;10.60;99.90;;;;;;4879170;29;20193;-62
2024/03/18 08:12:33;;;;;;;0.30;0.30;;;10.70;99.90;;;;;;4879262;29;20385;-61
2024/03/18 08:14:59;;;;;;;0.30;0.30;;;10.80;99.90;;;;;;4879015;29;20214;-58
2024/03/18 08:17:25;;;;;;;0.40;0.40;;;10.90;99.90;;;;;;4879062;29;20206;-59
2024/03/18 08:19:50;;;;;;;0.30;0.30;;;10.90;99.90;;;;;;4879341;29;20181;-60
2024/03/18 08:22:18;;;;;;;0.30;0.30;;;10.90;99.90;;;;;;4877916;29;20285;-60
2024/03/18 08:24:48;;;;;;;0.30;0.30;;;11.00;99.90;;;;;;4878903;29;20233;-61
2024/03/18 08:27:14;;;;;;;0.30;0.30;;;11.10;99.90;;;;;;4879038;29;20470;-61
2024/03/18 08:29:40;;;;;;;0.40;0.40;;;11.00;99.90;;;;;;4879073;29;20454;-62
2024/03/18 08:32:06;;;;;;;0.30;0.20;;;11.10;99.90;;;;;;4878977;29;20798;-66
2024/03/18 08:34:32;;;;;;;0.30;0.30;;;11.10;99.90;;;;;;4878616;29;20458;-61
2024/03/18 08:37:01;;;;;;;0.30;0.30;;;11.00;99.90;;;;;;4879025;29;20474;-62
2024/03/18 08:39:27;;;;;;;0.47;0.47;;;11.00;99.90;;;;;;4878923;29;20794;-62
2024/03/18 08:41:52;;;;;;;0.30;0.30;;;11.00;99.90;;;;;;4877667;29;20455;-64
2024/03/18 08:44:18;;;;;;;0.30;0.30;;;10.90;99.90;;;;;;4878655;29;20210;-60
2024/03/18 08:46:44;;;;;;;0.30;0.30;;;10.90;99.90;;;;;;4880491;29;20252;-61
2024/03/18 08:49:13;;;;;;;1.00;0.70;;;10.80;99.90;;;;;;4883091;29;20205;-59
2024/03/18 08:51:40;;;;;;;0.30;0.30;;;10.70;99.90;;;;;;4882664;29;20187;-61
2024/03/18 08:54:06;;;;;;;0.30;0.30;;;10.70;99.90;;;;;;4882269;29;20910;-59
2024/03/18 08:56:32;;;;;;;0.33;0.33;;;10.70;99.90;;;;;;4882069;29;20210;-59
2024/03/18 08:58:58;;;;;;;0.40;0.40;;;10.60;99.90;;;;;;4882725;29;20426;-60
2024/03/18 09:01:24;;;;;;;0.40;0.40;;;10.60;99.90;;;;;;4882394;29;20421;-59
2024/03/18 09:03:49;;;;;;;0.37;0.37;;;10.50;99.90;;;;;;4882306;29;20221;-59
2024/03/18 09:06:18;;;;;;;0.30;0.30;;;10.60;99.90;;;;;;4882016;29;20221;-58
2024/03/18 09:08:45;;;;;;;0.30;0.30;;;10.50;99.90;;;;;;4882133;29;20564;-61
2024/03/18 09:11:12;;;;;;;0.30;0.30;;;10.50;99.90;;;;;;4882314;29;20803;-60
2024/03/18 09:13:39;;;;;;;0.50;0.50;;;10.60;99.90;;;;;;4882099;29;20448;-60
2024/03/18 09:16:05;;;;;;;0.30;0.30;;;10.60;99.90;;;;;;4881768;29;20853;-61
2024/03/18 09:18:31;;;;;;;0.40;0.40;;;10.70;99.90;;;;;;4882369;29;20489;-59
2024/03/18 09:20:57;;;;;;;0.40;0.40;;;10.70;99.90;;;;;;4882046;29;20430;-60
2024/03/18 09:23:23;;;;;;;0.40;0.40;;;10.80;99.90;;;;;;4881913;29;20494;-60
2024/03/18 09:25:50;;;;;;;0.30;0.30;;;10.90;99.90;;;;;;4881197;29;20434;-60
2024/03/18 09:28:16;;;;;;;0.33;0.33;;;10.90;99.90;;;;;;4881745;29;21003;-60
2024/03/18 09:30:42;;;;;;;0.30;0.20;;;11.00;99.90;;;;;;4881649;29;20433;-60
2024/03/18 09:33:07;;;;;;;0.90;0.67;;;11.10;99.90;;;;;;4881751;29;20477;-59
2024/03/18 09:35:33;;;;;;;0.30;0.30;;;11.20;99.90;;;;;;4881338;29;20525;-60
2024/03/18 09:38:01;;;;;;;0.37;0.37;;;11.30;99.90;;;;;;4881715;29;20183;-60
2024/03/18 09:40:30;;;;;;;0.30;0.30;;;11.40;99.90;;;;;;4881626;29;20187;-60
2024/03/18 09:42:56;;;;;;;0.40;0.40;;;11.40;99.90;;;;;;4881628;29;20951;-60
2024/03/18 09:45:23;;;;;;;0.60;0.60;;;11.40;99.90;;;;;;4879973;29;20517;-60
2024/03/18 09:47:49;;;;;;;0.30;0.30;;;11.50;99.90;;;;;;4881694;29;20206;-61
2024/03/18 09:50:16;;;;;;;0.50;0.50;;;11.50;99.90;;;;;;4881730;29;20734;-61
2024/03/18 09:52:43;;;;;;;0.30;0.30;;;11.50;99.90;;;;;;4880461;29;20238;-58
2024/03/18 09:55:22;;;;;;;0.37;0.37;;;11.60;99.90;;;;;;4881322;29;20422;-60
2024/03/18 09:57:49;;;;;;;0.30;0.30;;;11.80;99.90;;;;;;4881416;29;20418;-61
2024/03/18 10:00:17;;;;;;;0.30;0.30;;;11.90;99.90;;;;;;4881597;29;20450;-59
2024/03/18 10:02:43;;;;;;;0.33;0.33;;;11.90;99.90;;;;;;4879962;29;20902;-61
2024/03/18 10:05:09;;;;;;;0.30;0.20;;;12.00;99.90;;;;;;4880980;29;20891;-60
2024/03/18 10:07:36;;;;;;;0.30;0.30;;;12.00;99.90;;;;;;4880796;29;20497;-61
2024/03/18 10:10:04;;;;;;;0.30;0.30;;;12.10;99.90;;;;;;4881240;29;20423;-61
2024/03/18 10:12:30;;;;;;;0.30;0.20;;;12.10;99.90;;;;;;4881082;29;20430;-61
2024/03/18 10:14:57;;;;;;;0.90;0.67;;;12.10;99.90;;;;;;4880765;29;20420;-60
2024/03/18 10:17:25;;;;;;;0.60;0.40;;;12.20;99.90;;;;;;4880866;29;20202;-59
2024/03/18 10:19:51;;;;;;;0.50;0.50;;;12.30;99.90;;;;;;4880992;29;20412;-60
2024/03/18 10:22:16;;;;;;;0.50;0.50;;;12.40;99.90;;;;;;4880648;29;20431;-60
2024/03/18 10:24:43;;;;;;;0.43;0.43;;;12.40;99.90;;;;;;4880149;29;20217;-61
2024/03/18 10:27:10;;;;;;;0.40;0.40;;;12.50;99.90;;;;;;4894038;29;20350;-60
2024/03/18 10:29:38;;;;;;;0.37;0.37;;;12.50;99.90;;;;;;4897701;29;20415;-59
2024/03/18 10:32:05;;;;;;;0.30;0.27;;;12.60;99.90;;;;;;4899134;29;20536;-60
2024/03/18 10:34:36;;;;;;;0.30;0.27;;;12.70;99.90;;;;;;4897799;29;20889;-60
2024/03/18 10:37:03;;;;;;;0.40;0.40;;;12.80;99.90;;;;;;4898139;29;20439;-60
2024/03/18 10:39:45;;;;;;;0.30;0.30;;;12.80;99.90;;;;;;4899348;29;20744;-59
2024/03/18 10:42:18;;;;;;;0.30;0.30;;;12.90;99.90;;;;;;4899441;29;20417;-60
2024/03/18 10:45:15;;;;;;;0.30;0.20;;;13.00;99.90;;;;;;4899076;29;20444;-60
2024/03/18 10:47:42;;;;;;;0.30;0.30;;;13.00;99.90;;;;;;4899444;29;20386;-60
2024/03/18 10:50:14;;;;;;;0.30;0.30;;;13.10;99.90;;;;;;4899122;29;20464;-60
2024/03/18 10:52:40;;;;;;;0.30;0.20;;;13.10;99.90;;;;;;4898996;29;20419;-61
2024/03/18 10:55:18;;;;;;;0.40;0.40;;;13.10;99.90;;;;;;4898621;29;20759;-60
2024/03/18 10:57:49;;;;;;;0.30;0.30;;;13.10;99.90;;;;;;4899320;29;20411;-60
2024/03/18 11:00:18;;;;;;;0.50;0.50;;;13.10;99.90;;;;;;4898991;29;20392;-60
2024/03/18 11:03:14;;;;;;;0.30;0.30;;;13.20;99.90;;;;;;4898806;29;20434;-61
2024/03/18 11:05:46;;;;;;;0.40;0.40;;;13.00;99.90;;;;;;4894043;29;20446;-61
2024/03/18 11:08:12;;;;;;;0.30;0.30;;;13.00;99.90;;;;;;4898339;29;20502;-61
2024/03/18 11:10:39;;;;;;;0.30;0.30;;;13.00;99.90;;;;;;4898657;29;20768;-61
2024/03/18 11:13:12;;;;;;;0.30;0.30;;;13.00;99.90;;;;;;4898717;29;20407;-60
2024/03/18 11:15:47;;;;;;;0.30;0.30;;;13.10;99.90;;;;;;4898003;29;20446;-60
2024/03/18 11:18:17;;;;;;;0.30;0.20;;;13.10;99.90;;;;;;4898220;29;20476;-61
2024/03/18 11:20:47;;;;;;;0.87;0.87;;;13.10;99.90;;;;;;4898887;29;20418;-61
2024/03/18 11:23:23;;;;;;;0.30;0.30;;;13.30;99.90;;;;;;4898495;29;20554;-61
2024/03/18 11:25:53;;;;;;;0.30;0.30;;;13.20;99.90;;;;;;4898215;29;20750;-61
2024/03/18 11:28:19;;;;;;;0.30;0.30;;;13.20;99.90;;;;;;4897272;29;21016;-61
2024/03/18 11:30:47;;;;;;;0.80;0.80;;;13.20;99.90;;;;;;4898455;29;20390;-59
2024/03/18 11:33:13;;;;;;;0.30;0.30;;;13.20;99.90;;;;;;4898610;29;20933;-61
2024/03/18 11:35:41;;;;;;;0.30;0.30;;;13.20;99.90;;;;;;4898182;29;20431;-61
2024/03/18 11:38:11;;;;;;;0.30;0.30;;;13.20;99.90;;;;;;4879971;29;20218;-61
2024/03/18 11:40:38;;;;;;;0.30;0.30;;;13.20;99.90;;;;;;4879669;29;20770;-58
2024/03/18 11:43:05;;;;;;;0.30;0.30;;;13.20;99.90;;;;;;4879580;29;20460;-61
2024/03/18 11:45:30;;;;;;;0.30;0.30;;;13.20;99.90;;;;;;4879089;29;20526;-61
2024/03/18 11:48:06;;;;;;;0.30;0.27;;;13.20;99.90;;;;;;4879680;29;20876;-60
2024/03/18 11:50:38;;;;;;;0.50;0.50;;;13.10;99.90;;;;;;4879339;29;20168;-60
2024/03/18 11:53:07;;;;;;;0.40;0.40;;;12.90;99.90;;;;;;4879604;29;20750;-62
2024/03/18 11:55:37;;;;;;;0.40;0.40;;;12.80;99.90;;;;;;4879144;29;20433;-61
2024/03/18 11:58:04;;;;;;;0.30;0.30;;;12.80;99.90;;;;;;4884568;29;20421;-61
2024/03/18 12:00:33;;;;;;;0.30;0.30;;;12.60;99.90;;;;;;4889678;29;20601;-61
2024/03/18 12:03:05;;;;;;;0.30;0.30;;;12.50;99.90;;;;;;4897552;29;20910;-61
2024/03/18 12:05:32;;;;;;;0.63;0.63;;;12.40;99.90;;;;;;4897676;29;20835;-62
2024/03/18 12:08:00;;;;;;;0.40;0.40;;;12.30;99.90;;;;;;4897695;29;20943;-61
2024/03/18 12:10:26;;;;;;;0.30;0.30;;;12.20;99.90;;;;;;4896269;29;20439;-64
2024/03/18 12:12:53;;;;;;;0.30;0.30;;;12.20;99.90;;;;;;4897404;29;20774;-61
2024/03/18 12:15:18;;;;;;;0.80;0.80;;;12.20;99.90;;;;;;4897506;29;20772;-61
2024/03/18 12:17:45;;;;;;;0.33;0.33;;;12.20;99.90;;;;;;4897823;29;20497;-61
2024/03/18 12:20:30;;;;;;;0.30;0.30;;;12.10;99.90;;;;;;4895238;29;20189;-61
2024/03/18 12:23:00;;;;;;;0.30;0.30;;;12.00;99.90;;;;;;4895522;29;20422;-63
2024/03/18 12:28:35;;;;;;;0.50;0.50;;;12.00;99.90;;;;;;4896299;29;20941;-62
2024/03/18 12:31:12;;;;;;;0.30;0.30;;;12.00;99.90;;;;;;4896005;29;20430;-61
2024/03/18 12:33:40;;;;;;;0.30;0.30;;;12.00;99.90;;;;;;4896271;29;20504;-60
2024/03/18 12:36:13;;;;;;;0.60;0.60;;;12.00;99.90;;;;;;4897383;29;20940;-60
2024/03/18 12:38:43;;;;;;;0.40;0.40;;;12.00;99.90;;;;;;4898198;29;20731;-63
2024/03/18 12:41:28;;;;;;;0.30;0.30;;;12.00;99.90;;;;;;4897850;29;20777;-62
2024/03/18 12:43:54;;;;;;;0.40;0.40;;;12.10;99.90;;;;;;4897465;29;20805;-62
2024/03/18 12:46:20;;;;;;;0.30;0.30;;;12.10;99.90;;;;;;4896033;29;20477;-62
2024/03/18 12:48:46;;;;;;;0.30;0.20;;;12.10;99.90;;;;;;4897984;29;20451;-63
2024/03/18 12:51:17;;;;;;;0.30;0.30;;;12.20;99.90;;;;;;4897683;29;20178;-62
2024/03/18 12:53:47;;;;;;;0.40;0.40;;;12.20;99.90;;;;;;4897639;29;20431;-62
2024/03/18 12:56:14;;;;;;;2.13;0.87;;;12.20;99.90;;;;;;4897047;29;20491;-63
2024/03/18 12:58:40;;;;;;;0.30;0.30;;;12.30;99.90;;;;;;4897628;29;20463;-63
2024/03/18 13:01:06;;;;;;;0.30;0.30;;;12.30;99.90;;;;;;4897454;29;20821;-63
2024/03/18 13:03:33;;;;;;;0.30;0.30;;;12.30;99.90;;;;;;4897411;29;20214;-63
2024/03/18 13:05:59;;;;;;;0.30;0.27;;;12.30;99.90;;;;;;4897230;29;20789;-63
2024/03/18 13:08:25;;;;;;;0.57;0.57;;;12.20;99.90;;;;;;4897298;29;20449;-63
2024/03/18 13:10:51;;;;;;;0.40;0.40;;;12.20;99.90;;;;;;4897538;29;20389;-63
2024/03/18 13:13:29;;;;;;;0.30;0.30;;;12.20;99.90;;;;;;4897367;29;20434;-62
2024/03/18 13:15:56;;;;;;;0.30;0.20;;;12.20;99.90;;;;;;4897346;29;20432;-62
2024/03/18 13:18:23;;;;;;;0.30;0.30;;;12.20;99.90;;;;;;4897427;29;20960;-62
2024/03/18 13:20:50;;;;;;;0.30;0.30;;;12.20;99.90;;;;;;4897314;29;20426;-62
2024/03/18 13:23:17;;;;;;;0.70;0.70;;;12.30;99.90;;;;;;4897406;29;20525;-62
2024/03/18 13:25:44;;;;;;;0.30;0.30;;;12.20;99.90;;;;;;4897007;29;20540;-62
2024/03/18 13:28:13;;;;;;;0.30;0.30;;;12.30;99.90;;;;;;4897425;29;20497;-63
2024/03/18 13:30:38;;;;;;;0.30;0.30;;;12.30;99.90;;;;;;4897261;29;20410;-62
2024/03/18 13:33:07;;;;;;;0.40;0.40;;;12.40;99.90;;;;;;4899562;29;20839;-62
2024/03/18 13:35:33;;;;;;;0.30;0.30;;;12.60;99.90;;;;;;4900365;29;20289;-63
2024/03/18 13:37:59;;;;;;;0.30;0.30;;;12.60;99.90;;;;;;4900707;29;20476;-61
2024/03/18 13:40:25;;;;;;;0.30;0.30;;;12.60;99.90;;;;;;4900720;29;20295;-62
2024/03/18 13:42:52;;;;;;;0.30;0.30;;;12.60;99.90;;;;;;4900440;29;20510;-62
2024/03/18 13:45:18;;;;;;;0.30;0.30;;;12.70;99.90;;;;;;4900294;29;20318;-61
2024/03/18 13:47:44;;;;;;;2.60;0.73;;;12.80;99.90;;;;;;4899998;29;20742;-66
2024/03/18 13:50:10;;;;;;;0.30;0.30;;;12.90;99.90;;;;;;4900054;29;20541;-64
2024/03/18 13:52:36;;;;;;;0.50;0.40;;;13.00;99.90;;;;;;4900155;29;20845;-65
2024/03/18 13:55:04;;;;;;;0.30;0.30;;;13.20;99.90;;;;;;4899942;29;20397;-64
2024/03/18 13:57:30;;;;;;;0.30;0.30;;;13.40;99.90;;;;;;4900244;29;20426;-65
2024/03/18 13:59:57;;;;;;;0.30;0.30;;;13.50;99.90;;;;;;4900132;29;20423;-65
2024/03/18 14:02:22;;;;;;;0.30;0.30;;;13.60;99.90;;;;;;4899934;29;20442;-65
2024/03/18 14:04:50;;;;;;;0.50;0.50;;;13.60;99.90;;;;;;4885651;29;21108;-64
2024/03/18 14:07:16;;;;;;;0.30;0.30;;;13.60;99.90;;;;;;4880749;29;20212;-64
2024/03/18 14:09:41;;;;;;;0.30;0.30;;;13.60;99.90;;;;;;4881133;29;20412;-63
2024/03/18 14:12:07;;;;;;;0.30;0.30;;;13.60;99.90;;;;;;4880998;29;20395;-63
2024/03/18 14:14:33;;;;;;;0.33;0.33;;;13.70;99.90;;;;;;4880419;29;20421;-65
2024/03/18 14:17:03;;;;;;;0.30;0.30;;;13.70;99.90;;;;;;4881177;29;20200;-64
2024/03/18 14:19:30;;;;;;;0.30;0.30;;;13.70;99.90;;;;;;4881259;29;20232;-63
2024/03/18 14:21:57;;;;;;;0.33;0.33;;;13.80;99.90;;;;;;4879485;29;20515;-65
2024/03/18 14:24:23;;;;;;;0.30;0.30;;;13.80;99.90;;;;;;4881241;29;20439;-65
2024/03/18 14:26:48;;;;;;;0.30;0.30;;;13.90;99.90;;;;;;4880420;29;20408;-65
2024/03/18 14:29:14;;;;;;;0.30;0.30;;;13.90;99.90;;;;;;4880866;29;20420;-64
2024/03/18 14:31:40;;;;;;;0.40;0.40;;;13.90;99.90;;;;;;4880735;29;20269;-65
2024/03/18 14:34:06;;;;;;;0.30;0.20;;;13.90;99.90;;;;;;4880506;29;20631;-64
2024/03/18 14:36:33;;;;;;;0.50;0.50;;;14.00;99.90;;;;;;4879649;29;20449;-65
2024/03/18 14:38:58;;;;;;;0.30;0.30;;;14.10;99.90;;;;;;4880804;29;20532;-66
2024/03/18 14:41:24;;;;;;;0.30;0.20;;;14.10;99.90;;;;;;4880812;29;20429;-66
2024/03/18 14:43:50;;;;;;;0.30;0.30;;;14.10;99.90;;;;;;4879758;29;20201;-64
2024/03/18 14:46:15;;;;;;;0.30;0.30;;;14.10;99.90;;;;;;4880388;29;20287;-65
2024/03/18 14:48:41;;;;;;;0.30;0.30;;;14.10;99.90;;;;;;4880712;29;20173;-64
2024/03/18 14:51:10;;;;;;;0.40;0.40;;;14.10;99.90;;;;;;4880571;29;20204;-65
2024/03/18 14:53:38;;;;;;;0.30;0.30;;;14.00;99.90;;;;;;4880881;29;20187;-63
2024/03/18 14:56:04;;;;;;;0.30;0.30;;;14.00;99.90;;;;;;4880066;29;21027;-65
2024/03/18 14:58:29;;;;;;;0.40;0.40;;;14.00;99.90;;;;;;4880714;29;20420;-65
2024/03/18 15:00:55;;;;;;;0.40;0.40;;;13.90;99.90;;;;;;4880775;29;20218;-65
2024/03/18 15:03:20;;;;;;;0.30;0.30;;;13.90;99.90;;;;;;4880263;29;20203;-65
2024/03/18 15:05:46;;;;;;;0.50;0.40;;;13.80;99.90;;;;;;4879478;29;20221;-65
2024/03/18 15:08:12;;;;;;;0.40;0.40;;;13.80;99.90;;;;;;4880275;29;20192;-64
2024/03/18 15:10:37;;;;;;;0.30;0.30;;;13.90;99.90;;;;;;4880267;29;20232;-65
2024/03/18 15:13:05;;;;;;;0.30;0.20;;;13.90;99.90;;;;;;4880501;29;20184;-65
2024/03/18 15:15:31;;;;;;;0.30;0.30;;;13.90;99.90;;;;;;4879809;29;20201;-65
2024/03/18 15:17:58;;;;;;;0.40;0.40;;;14.00;99.90;;;;;;4880207;29;20487;-65
2024/03/18 15:20:23;;;;;;;0.30;0.30;;;14.10;99.90;;;;;;4880032;29;20234;-65
2024/03/18 15:22:49;;;;;;;0.30;0.30;;;14.10;99.90;;;;;;4880088;29;20422;-64
2024/03/18 15:28:00;;;;;;;0.30;0.27;;;14.20;99.90;;;;;;4880520;29;20574;-65
2024/03/18 15:30:26;;;;;;;0.30;0.30;;;14.10;99.90;;;;;;4880015;29;20417;-66
2024/03/18 15:32:53;;;;;;;0.60;0.60;;;14.10;99.90;;;;;;4879834;29;20188;-65
2024/03/18 15:35:19;;;;;;;0.30;0.30;;;14.10;99.90;;;;;;4879413;29;20226;-65
2024/03/18 15:37:45;;;;;;;0.30;0.30;;;14.10;99.90;;;;;;4879797;29;20422;-65
2024/03/18 15:40:14;;;;;;;0.30;0.30;;;14.00;99.90;;;;;;4880102;29;20897;-65
2024/03/18 15:42:43;;;;;;;0.30;0.20;;;14.10;99.90;;;;;;4879660;29;20392;-64
2024/03/18 15:45:15;;;;;;;0.30;0.30;;;14.10;99.90;;;;;;4879416;29;20520;-65
2024/03/18 15:47:42;;;;;;;0.30;0.30;;;14.10;99.90;;;;;;4879702;29;20439;-65
2024/03/18 15:50:10;;;;;;;0.30;0.30;;;14.00;99.90;;;;;;4879331;29;20513;-65
2024/03/18 15:52:36;;;;;;;0.60;0.60;;;14.10;99.90;;;;;;4879393;29;20412;-66
2024/03/18 15:55:07;;;;;;;0.30;0.30;;;14.10;99.90;;;;;;4878875;29;20895;-64
2024/03/18 15:57:34;;;;;;;0.60;0.60;;;14.10;99.90;;;;;;4879460;29;20444;-64
2024/03/18 16:00:00;;;;;;;0.30;0.30;;;14.10;99.90;;;;;;4879297;29;20809;-66
2024/03/18 16:02:25;;;;;;;0.30;0.30;;;14.10;99.90;;;;;;4877830;29;20407;-64
2024/03/18 16:04:51;;;;;;;0.40;0.40;;;14.10;99.90;;;;;;4878925;29;20750;-66
2024/03/18 16:07:18;;;;;;;0.43;0.43;;;14.10;99.90;;;;;;4879023;29;20197;-66
2024/03/18 16:09:44;;;;;;;0.30;0.30;;;14.10;99.90;;;;;;4879412;29;20208;-66
2024/03/18 16:12:16;;;;;;;0.30;0.20;;;14.20;99.90;;;;;;4877856;29;20443;-66
2024/03/18 16:14:44;;;;;;;0.30;0.30;;;14.20;99.90;;;;;;4878983;29;20895;-65
2024/03/18 16:17:10;;;;;;;0.40;0.40;;;14.20;99.90;;;;;;4879087;29;20448;-65
2024/03/18 16:19:37;;;;;;;1.03;0.73;;;14.10;99.90;;;;;;4879126;29;20408;-65
2024/03/18 16:22:03;;;;;;;0.30;0.30;;;14.10;99.90;;;;;;4879049;29;20740;-65
2024/03/18 16:24:29;;;;;;;0.40;0.40;;;14.00;99.90;;;;;;4877625;29;20767;-66
2024/03/18 16:26:54;;;;;;;0.50;0.50;;;14.00;99.90;;;;;;4879031;29;20419;-66
2024/03/18 16:29:20;;;;;;;1.07;0.63;;;13.90;99.90;;;;;;4878793;29;20215;-65
2024/03/18 16:31:46;;;;;;;0.30;0.30;;;13.90;99.90;;;;;;4877664;29;20180;-65
2024/03/18 16:34:12;;;;;;;0.30;0.30;;;13.90;99.90;;;;;;4879149;29;20188;-64
2024/03/18 16:36:37;;;;;;;0.30;0.30;;;13.70;99.90;;;;;;4878583;29;20422;-66
2024/03/18 16:39:03;;;;;;;0.40;0.40;;;13.70;99.90;;;;;;4879128;29;20187;-64
2024/03/18 16:41:28;;;;;;;0.30;0.20;;;13.70;99.90;;;;;;4879193;29;20265;-65
2024/03/18 16:43:54;;;;;;;0.30;0.30;;;13.60;99.90;;;;;;4878979;29;20221;-65
2024/03/18 16:46:20;;;;;;;0.30;0.30;;;13.60;99.90;;;;;;4878242;29;20200;-65
2024/03/18 16:48:46;;;;;;;0.30;0.30;;;13.60;99.90;;;;;;4878752;29;20179;-66
2024/03/18 16:51:12;;;;;;;0.30;0.30;;;13.60;99.90;;;;;;4877257;29;20416;-66
2024/03/18 16:53:37;;;;;;;0.60;0.50;;;13.50;99.90;;;;;;4878872;29;20263;-67
2024/03/18 16:56:03;;;;;;;0.40;0.40;;;13.50;99.90;;;;;;4878239;29;20670;-65
2024/03/18 16:58:30;;;;;;;3.23;2.20;;;13.40;99.90;;;;;;4885556;29;20625;-65
2024/03/18 17:00:56;;;;;;;0.30;0.30;;;13.40;99.90;;;;;;4892592;29;20403;-65
2024/03/18 17:03:22;;;;;;;0.40;0.40;;;13.40;99.90;;;;;;4888424;29;20434;-64
2024/03/18 17:05:48;;;;;;;0.30;0.30;;;13.30;99.90;;;;;;4877981;29;20428;-64
2024/03/18 17:08:15;;;;;;;0.30;0.30;;;13.20;99.90;;;;;;4881937;29;20816;-64
2024/03/18 17:10:44;;;;;;;0.30;0.30;;;13.20;99.90;;;;;;4882237;29;20432;-64
2024/03/18 17:13:10;;;;;;;0.30;0.30;;;13.20;99.90;;;;;;4882360;29;20436;-64
2024/03/18 17:15:36;;;;;;;0.83;0.83;;;13.10;99.90;;;;;;4881565;29;20435;-65
2024/03/18 17:18:01;;;;;;;0.40;0.40;;;13.10;99.90;;;;;;4881742;29;20168;-64
2024/03/18 17:20:28;;;;;;;0.30;0.30;;;13.00;99.90;;;;;;4880639;29;20180;-64
2024/03/18 17:22:53;;;;;;;0.30;0.30;;;12.90;99.90;;;;;;4894071;29;20249;-65
2024/03/18 17:25:19;;;;;;;0.30;0.30;;;12.90;99.90;;;;;;4899893;29;20467;-65
2024/03/18 17:27:45;;;;;;;0.40;0.40;;;12.90;99.90;;;;;;4900376;29;20186;-65
2024/03/18 17:30:11;;;;;;;0.37;0.37;;;12.90;99.90;;;;;;4894763;29;20187;-64
2024/03/18 17:32:37;;;;;;;0.30;0.30;;;12.80;99.90;;;;;;4881697;29;20186;-65
2024/03/18 17:35:04;;;;;;;0.40;0.40;;;12.80;99.90;;;;;;4881800;29;20498;-65
2024/03/18 17:37:31;;;;;;;0.30;0.30;;;12.70;99.90;;;;;;4881778;29;20235;-65
2024/03/18 17:39:57;;;;;;;0.30;0.30;;;12.60;99.90;;;;;;4880287;29;20810;-64
2024/03/18 17:42:26;;;;;;;0.40;0.40;;;12.50;99.90;;;;;;4881669;29;20914;-60
2024/03/18 17:44:51;;;;;;;2.30;2.20;;;12.40;99.90;;;;;;4881392;29;20466;-62
2024/03/18 17:47:17;;;;;;;0.60;0.60;;;12.30;99.90;;;;;;4898349;29;20961;-62
2024/03/18 17:49:43;;;;;;;0.30;0.30;;;12.20;99.90;;;;;;4900494;29;20436;-63
2024/03/18 17:52:09;;;;;;;0.30;0.30;;;12.20;99.90;;;;;;4895869;29;20190;-62
2024/03/18 17:54:35;;;;;;;0.67;0.67;;;12.10;99.90;;;;;;4888651;29;20265;-63
2024/03/18 17:57:02;;;;;;;0.40;0.40;;;12.00;99.90;;;;;;4899803;29;20450;-63
2024/03/18 17:59:29;;;;;;;0.30;0.30;;;11.90;99.90;;;;;;4887553;29;20427;-62
2024/03/18 18:01:56;;;;;;;0.40;0.40;;;11.80;99.90;;;;;;4883296;29;20398;-61
2024/03/18 18:04:23;;;;;;;0.40;0.40;;;11.70;99.90;;;;;;4899961;29;20518;-62